createdAt,value
2019-05-13T00:04:53.548Z,91.20
2019-05-13T00:10:00.171Z,92.10
2019-05-13T00:15:07.498Z,91.90
2019-05-13T00:20:14.725Z,90.90
2019-05-13T00:25:21.498Z,92.70
2019-05-13T00:30:27.990Z,89.50
2019-05-13T00:35:34.700Z,90.40
2019-05-13T00:40:41.251Z,92.50
2019-05-13T00:45:47.874Z,91.70
2019-05-13T00:50:54.609Z,94.00
2019-05-13T00:56:01.219Z,95.50
2019-05-13T01:01:07.844Z,92.50
2019-05-13T01:06:14.564Z,93.50
2019-05-13T01:11:21.029Z,91.50
2019-05-13T01:16:27.560Z,92.30
2019-05-13T01:21:34.623Z,93.70
2019-05-13T01:26:43.656Z,94.00
2019-05-13T01:31:49.654Z,95.50
2019-05-13T01:36:56.279Z,94.50
2019-05-13T01:42:03.719Z,95.60
2019-05-13T01:47:10.449Z,95.80
2019-05-13T01:52:16.969Z,97.30
2019-05-13T01:57:23.875Z,96.40
2019-05-13T02:02:33.693Z,96.70
2019-05-13T02:07:53.687Z,97.80
2019-05-13T02:12:48.283Z,99.90
2019-05-13T02:17:54.880Z,98.90
2019-05-13T02:23:03.843Z,99.90
2019-05-13T02:28:10.654Z,99.20
2019-05-13T02:33:17.440Z,99.90
2019-05-13T02:38:29.754Z,99.90
2019-05-13T02:43:33.233Z,99.90
2019-05-13T02:48:42.226Z,99.90
2019-05-13T02:53:48.630Z,99.90
2019-05-13T02:58:55.248Z,99.90
2019-05-13T03:04:03.112Z,99.90
2019-05-13T03:09:12.693Z,99.90
2019-05-13T03:14:18.587Z,99.90
2019-05-13T03:19:25.191Z,99.90
2019-05-13T03:24:32.980Z,99.90
2019-05-13T03:29:43.230Z,99.90
2019-05-13T03:34:55.095Z,99.90
2019-05-13T03:39:59.354Z,99.90
2019-05-13T03:45:06.190Z,99.90
2019-05-13T03:50:13.200Z,99.90
2019-05-13T03:55:23.065Z,99.90
2019-05-13T04:00:28.365Z,99.90
2019-05-13T04:05:35.022Z,99.90
2019-05-13T04:10:42.307Z,99.90
2019-05-13T04:15:52.637Z,99.90
2019-05-13T04:20:57.853Z,99.90
2019-05-13T04:26:04.562Z,99.90
2019-05-13T04:31:14.078Z,99.90
2019-05-13T04:36:23.020Z,99.90
2019-05-13T04:41:27.934Z,99.90
2019-05-13T04:46:35.622Z,99.50
2019-05-13T04:51:42.308Z,96.50
2019-05-13T04:56:52.227Z,98.70
2019-05-13T05:02:49.708Z,99.70
2019-05-13T05:08:33.035Z,99.90
2019-05-13T05:14:55.200Z,99.20
2019-05-13T05:20:34.076Z,98.10
2019-05-13T05:26:41.987Z,96.80
2019-05-13T05:32:32.299Z,96.90
2019-05-13T05:38:12.136Z,95.90
2019-05-13T05:43:22.440Z,94.30
2019-05-13T05:48:32.700Z,92.50
2019-05-13T05:53:43.764Z,93.20
2019-05-13T05:58:53.477Z,90.80
2019-05-13T06:04:01.506Z,89.80
2019-05-13T06:09:08.947Z,89.70
2019-05-13T06:14:15.591Z,89.00
2019-05-13T06:19:23.001Z,87.30
2019-05-13T06:24:31.263Z,88.50
2019-05-13T06:29:38.041Z,86.70
2019-05-13T06:34:45.151Z,84.80
2019-05-13T06:39:51.772Z,84.60
2019-05-13T06:44:58.389Z,83.30
2019-05-13T06:50:05.537Z,83.90
2019-05-13T06:55:12.340Z,83.40
2019-05-13T07:00:21.384Z,82.40
2019-05-13T07:05:27.396Z,82.90
2019-05-13T07:10:33.967Z,82.60
2019-05-13T07:15:41.694Z,80.80
2019-05-13T07:20:49.493Z,83.10
2019-05-13T07:25:56.124Z,80.80
2019-05-13T07:31:02.825Z,78.40
2019-05-13T07:36:09.426Z,81.80
2019-05-13T07:41:32.240Z,78.60
2019-05-13T07:46:25.835Z,78.90
2019-05-13T07:51:32.519Z,79.80
2019-05-13T07:56:39.037Z,78.80
2019-05-13T08:01:45.629Z,77.10
2019-05-13T08:06:52.566Z,79.30
2019-05-13T08:12:06.380Z,77.30
2019-05-13T08:17:11.480Z,77.70
2019-05-13T08:22:17.600Z,73.00
2019-05-13T08:27:30.427Z,68.40
2019-05-13T08:32:32.601Z,66.20
2019-05-13T08:37:41.271Z,71.70
2019-05-13T08:42:47.651Z,68.30
2019-05-13T08:47:54.294Z,68.10
2019-05-13T08:53:01.790Z,65.90
2019-05-13T08:58:08.666Z,68.40
2019-05-13T09:03:17.052Z,65.10
2019-05-13T09:08:25.395Z,67.60
2019-05-13T09:13:33.038Z,66.00
2019-05-13T09:18:42.524Z,62.80
2019-05-13T09:23:48.092Z,58.10
2019-05-13T09:28:54.696Z,58.20
2019-05-13T09:34:01.605Z,57.60
2019-05-13T09:39:12.403Z,56.40
2019-05-13T09:44:18.087Z,56.90
2019-05-13T09:49:24.885Z,56.70
2019-05-13T09:54:33.076Z,55.30
2019-05-13T09:59:42.198Z,54.90
2019-05-13T10:04:51.239Z,53.50
2019-05-13T10:09:57.408Z,54.10
2019-05-13T10:15:04.271Z,55.10
2019-05-13T10:20:12.158Z,51.30
2019-05-13T10:25:22.447Z,52.70
2019-05-13T10:30:28.805Z,54.80
2019-05-13T10:35:37.374Z,51.50
2019-05-13T10:40:44.129Z,51.80
2019-05-13T10:45:52.287Z,53.10
2019-05-13T10:50:59.234Z,47.40
2019-05-13T10:56:05.974Z,51.00
2019-05-13T11:01:12.624Z,48.70
2019-05-13T11:06:21.993Z,51.10
2019-05-13T11:11:28.045Z,49.10
2019-05-13T11:16:34.700Z,47.80
2019-05-13T11:21:44.108Z,45.90
2019-05-13T11:26:52.239Z,47.50
2019-05-13T11:31:58.090Z,47.80
2019-05-13T11:37:04.903Z,48.80
2019-05-13T11:42:13.607Z,45.90
2019-05-13T11:47:20.055Z,45.00
2019-05-13T11:52:26.928Z,49.10
2019-05-13T11:57:33.917Z,46.90
2019-05-13T12:02:42.519Z,47.90
2019-05-13T12:07:48.937Z,48.20
2019-05-13T12:12:55.541Z,48.30
2019-05-13T12:18:02.962Z,47.40
2019-05-13T12:23:12.839Z,46.20
2019-05-13T12:28:18.201Z,48.20
2019-05-13T12:33:24.971Z,52.20
2019-05-13T12:38:33.261Z,50.10
2019-05-13T12:43:42.631Z,51.80
2019-05-13T12:48:48.491Z,50.80
2019-05-13T12:53:55.291Z,51.40
2019-05-13T12:59:03.028Z,51.60
2019-05-13T13:04:12.246Z,48.70
2019-05-13T13:09:19.629Z,51.70
2019-05-13T13:14:34.830Z,50.40
2019-05-13T13:19:35.731Z,51.10
2019-05-13T13:24:50.734Z,51.60
2019-05-13T13:30:02.250Z,50.20
2019-05-13T13:35:03.442Z,54.20
2019-05-13T13:40:08.522Z,52.10
2019-05-13T13:45:15.663Z,51.80
2019-05-13T13:50:24.626Z,51.80
2019-05-13T13:55:32.167Z,51.20
2019-05-13T14:00:50.499Z,51.50
2019-05-13T14:05:47.785Z,50.00
2019-05-13T14:10:54.529Z,49.80
2019-05-13T14:16:01.901Z,48.40
2019-05-13T14:21:08.958Z,52.30
2019-05-13T14:26:16.133Z,49.30
2019-05-13T14:31:22.774Z,50.40
2019-05-13T14:36:29.505Z,47.50
2019-05-13T14:41:36.092Z,48.10
2019-05-13T14:46:47.537Z,48.60
2019-05-13T14:51:52.250Z,46.80
2019-05-13T14:57:02.146Z,48.00
2019-05-13T15:02:07.846Z,45.40
2019-05-13T15:07:14.557Z,46.20
2019-05-13T15:12:22.201Z,45.70
2019-05-13T15:17:28.882Z,46.20
2019-05-13T15:22:35.366Z,47.20
2019-05-13T15:27:42.188Z,48.90
2019-05-13T15:32:49.282Z,48.60
2019-05-13T15:37:56.447Z,47.50
2019-05-13T15:43:03.375Z,45.60
2019-05-13T15:48:11.566Z,46.40
2019-05-13T15:53:18.399Z,47.60
2019-05-13T15:58:38.418Z,45.80
2019-05-13T16:03:34.311Z,45.60
2019-05-13T16:08:43.360Z,43.00
2019-05-13T16:13:51.535Z,47.30
2019-05-13T16:18:57.560Z,46.80
2019-05-13T16:24:04.223Z,47.10
2019-05-13T16:29:12.439Z,45.70
2019-05-13T16:34:22.267Z,41.90
2019-05-13T16:39:28.915Z,45.30
2019-05-13T16:44:35.577Z,46.90
2019-05-13T16:49:42.270Z,47.20
2019-05-13T16:54:48.946Z,43.80
2019-05-13T16:59:56.592Z,44.30
2019-05-13T17:05:03.270Z,43.10
2019-05-13T17:10:12.435Z,46.10
2019-05-13T17:15:21.124Z,49.00
2019-05-13T17:20:27.124Z,47.90
2019-05-13T17:25:33.784Z,48.50
2019-05-13T17:30:40.385Z,50.00
2019-05-13T17:35:47.138Z,50.00
2019-05-13T17:40:53.823Z,53.60
2019-05-13T17:46:00.523Z,49.50
2019-05-13T17:51:07.151Z,52.30
2019-05-13T17:56:13.737Z,57.30
2019-05-13T18:01:21.249Z,56.20
2019-05-13T18:06:28.213Z,61.00
2019-05-13T18:11:34.854Z,63.00
2019-05-13T18:16:41.923Z,63.50
2019-05-13T18:21:48.913Z,66.60
2019-05-13T18:26:55.585Z,67.40
2019-05-13T18:32:02.261Z,68.80
2019-05-13T18:37:11.619Z,70.20
2019-05-13T18:42:17.355Z,73.40
2019-05-13T18:47:25.303Z,74.90
2019-05-13T18:52:31.936Z,74.50
2019-05-13T18:57:38.609Z,76.00
2019-05-13T19:02:45.253Z,74.70
2019-05-13T19:07:51.880Z,75.10
2019-05-13T19:12:58.471Z,74.90
2019-05-13T19:18:05.518Z,77.80
2019-05-13T19:23:12.062Z,78.40
2019-05-13T19:28:18.640Z,79.50
2019-05-13T19:33:25.204Z,79.00
2019-05-13T19:38:32.132Z,81.00
2019-05-13T19:43:38.788Z,83.00
2019-05-13T19:48:45.245Z,84.00
2019-05-13T19:53:51.771Z,81.90
2019-05-13T19:58:58.311Z,82.60
2019-05-13T20:04:04.931Z,83.30
2019-05-13T20:09:11.680Z,83.30
2019-05-13T20:14:18.294Z,84.50
2019-05-13T20:19:24.957Z,83.50
2019-05-13T20:24:31.439Z,85.70
2019-05-13T20:29:38.078Z,87.40
2019-05-13T20:34:45.090Z,84.80
2019-05-13T20:39:51.664Z,86.40
2019-05-13T20:44:58.313Z,85.80
2019-05-13T20:50:06.363Z,85.20
2019-05-13T20:55:13.002Z,86.70
2019-05-13T21:00:19.911Z,86.90
2019-05-13T21:05:26.425Z,88.40
2019-05-13T21:10:33.052Z,89.40
2019-05-13T21:15:41.899Z,91.40
2019-05-13T21:20:48.056Z,90.20
2019-05-13T21:25:54.518Z,87.30
2019-05-13T21:31:02.132Z,87.90
2019-05-13T21:36:12.299Z,90.30
2019-05-13T21:41:21.099Z,94.00
2019-05-13T21:46:27.357Z,91.40
2019-05-13T21:51:33.923Z,93.40
2019-05-13T21:56:42.709Z,95.30
2019-05-13T22:01:48.954Z,92.90
2019-05-13T22:06:55.487Z,92.60
2019-05-13T22:12:02.186Z,91.90
2019-05-13T22:17:08.742Z,91.80
2019-05-13T22:22:15.338Z,93.40
2019-05-13T22:27:22.006Z,94.50
2019-05-13T22:32:28.658Z,94.80
2019-05-13T22:37:35.306Z,94.80
2019-05-13T22:42:41.936Z,94.60
2019-05-13T22:47:48.381Z,94.50
2019-05-13T22:52:54.975Z,93.70
2019-05-13T22:58:01.664Z,94.20
2019-05-13T23:03:09.271Z,92.90
2019-05-13T23:08:15.716Z,95.10
2019-05-13T23:13:22.461Z,94.50
2019-05-13T23:18:31.443Z,95.40
2019-05-13T23:23:37.315Z,96.30
2019-05-13T23:28:43.790Z,96.30
2019-05-13T23:33:51.170Z,93.90
2019-05-13T23:38:57.721Z,95.20
2019-05-13T23:44:04.370Z,97.10
2019-05-13T23:49:11.858Z,98.70
2019-05-13T23:54:18.574Z,99.00
2019-05-13T23:59:25.043Z,99.60
